sensor_id;sensor_type;location;lat;lon;timestamp;pressure;altitude;pressure_sealevel;temperature;humidity
9746;BME280;4912;50.836;12.958;2023-09-19T00:02:06;97075.09;;;19.76;90.73
9746;BME280;4912;50.836;12.958;2023-09-19T00:04:38;97075.50;;;19.80;90.04
9746;BME280;4912;50.836;12.958;2023-09-19T00:07:10;97091.81;;;19.81;89.94
9746;BME280;4912;50.836;12.958;2023-09-19T00:09:41;97091.06;;;19.81;90.02
9746;BME280;4912;50.836;12.958;2023-09-19T00:12:14;97099.22;;;19.71;90.50
9746;BME280;4912;50.836;12.958;2023-09-19T00:14:45;97101.63;;;19.67;91.12
9746;BME280;4912;50.836;12.958;2023-09-19T00:17:15;97097.47;;;19.68;90.82
9746;BME280;4912;50.836;12.958;2023-09-19T00:19:46;97096.41;;;19.71;90.96
9746;BME280;4912;50.836;12.958;2023-09-19T00:22:18;97100.16;;;19.74;90.83
9746;BME280;4912;50.836;12.958;2023-09-19T00:24:49;97082.84;;;19.62;91.07
9746;BME280;4912;50.836;12.958;2023-09-19T00:27:22;97081.25;;;19.74;90.44
9746;BME280;4912;50.836;12.958;2023-09-19T00:29:52;97093.88;;;19.81;89.98
9746;BME280;4912;50.836;12.958;2023-09-19T00:32:24;97093.09;;;19.80;89.73
9746;BME280;4912;50.836;12.958;2023-09-19T00:34:58;97096.75;;;19.88;89.16
9746;BME280;4912;50.836;12.958;2023-09-19T00:37:30;97097.97;;;20.00;88.35
9746;BME280;4912;50.836;12.958;2023-09-19T00:40:00;97095.41;;;20.10;87.39
9746;BME280;4912;50.836;12.958;2023-09-19T00:42:34;97098.97;;;20.11;86.74
9746;BME280;4912;50.836;12.958;2023-09-19T00:45:05;97100.09;;;20.08;86.87
9746;BME280;4912;50.836;12.958;2023-09-19T00:47:38;97099.19;;;20.13;86.25
9746;BME280;4912;50.836;12.958;2023-09-19T00:50:10;97105.34;;;20.11;85.27
9746;BME280;4912;50.836;12.958;2023-09-19T00:52:41;97104.88;;;19.99;86.08
9746;BME280;4912;50.836;12.958;2023-09-19T00:55:12;97101.78;;;20.11;85.17
9746;BME280;4912;50.836;12.958;2023-09-19T00:57:49;97105.22;;;20.17;85.27
9746;BME280;4912;50.836;12.958;2023-09-19T01:00:21;97107.88;;;20.22;84.18
9746;BME280;4912;50.836;12.958;2023-09-19T01:02:51;97109.25;;;20.29;83.03
9746;BME280;4912;50.836;12.958;2023-09-19T01:05:22;97112.94;;;20.24;82.72
9746;BME280;4912;50.836;12.958;2023-09-19T01:07:53;97112.03;;;20.29;82.96
9746;BME280;4912;50.836;12.958;2023-09-19T01:10:24;97100.19;;;20.23;82.57
9746;BME280;4912;50.836;12.958;2023-09-19T01:12:59;97097.41;;;20.23;82.24
9746;BME280;4912;50.836;12.958;2023-09-19T01:15:38;97105.44;;;20.19;82.12
9746;BME280;4912;50.836;12.958;2023-09-19T01:18:16;97104.13;;;20.20;82.24
9746;BME280;4912;50.836;12.958;2023-09-19T01:20:53;97115.75;;;20.24;81.77
9746;BME280;4912;50.836;12.958;2023-09-19T01:23:34;97109.53;;;20.18;81.78
9746;BME280;4912;50.836;12.958;2023-09-19T01:26:18;97107.13;;;20.22;81.58
9746;BME280;4912;50.836;12.958;2023-09-19T01:29:06;97114.59;;;20.19;81.55
9746;BME280;4912;50.836;12.958;2023-09-19T01:31:48;97118.56;;;20.24;80.71
9746;BME280;4912;50.836;12.958;2023-09-19T01:34:21;97122.09;;;19.96;82.27
9746;BME280;4912;50.836;12.958;2023-09-19T01:36:53;97125.97;;;19.93;82.78
9746;BME280;4912;50.836;12.958;2023-09-19T01:39:25;97121.19;;;19.80;83.30
9746;BME280;4912;50.836;12.958;2023-09-19T01:41:58;97118.38;;;19.80;83.92
9746;BME280;4912;50.836;12.958;2023-09-19T01:44:35;97113.66;;;19.75;83.88
9746;BME280;4912;50.836;12.958;2023-09-19T01:47:19;97120.38;;;19.72;83.97
9746;BME280;4912;50.836;12.958;2023-09-19T01:49:59;97115.03;;;19.61;84.86
9746;BME280;4912;50.836;12.958;2023-09-19T01:52:38;97127.09;;;19.56;85.71
9746;BME280;4912;50.836;12.958;2023-09-19T01:55:15;97131.56;;;19.51;86.09
9746;BME280;4912;50.836;12.958;2023-09-19T01:57:49;97137.50;;;19.48;86.38
9746;BME280;4912;50.836;12.958;2023-09-19T02:00:23;97134.22;;;19.57;86.32
9746;BME280;4912;50.836;12.958;2023-09-19T02:02:57;97134.03;;;19.55;85.92
9746;BME280;4912;50.836;12.958;2023-09-19T02:05:28;97136.00;;;19.47;86.48
9746;BME280;4912;50.836;12.958;2023-09-19T02:08:00;97132.00;;;19.42;86.54
9746;BME280;4912;50.836;12.958;2023-09-19T02:10:30;97134.59;;;19.40;86.99
9746;BME280;4912;50.836;12.958;2023-09-19T02:13:01;97131.91;;;19.35;87.37
9746;BME280;4912;50.836;12.958;2023-09-19T02:15:32;97140.97;;;19.28;88.32
9746;BME280;4912;50.836;12.958;2023-09-19T02:18:11;97141.88;;;19.22;88.19
9746;BME280;4912;50.836;12.958;2023-09-19T02:20:41;97148.97;;;19.23;88.53
9746;BME280;4912;50.836;12.958;2023-09-19T02:23:13;97144.78;;;19.17;88.92
9746;BME280;4912;50.836;12.958;2023-09-19T02:25:51;97158.81;;;19.17;88.94
9746;BME280;4912;50.836;12.958;2023-09-19T02:28:21;97159.34;;;19.15;89.16
9746;BME280;4912;50.836;12.958;2023-09-19T02:30:57;97160.84;;;19.16;89.17
9746;BME280;4912;50.836;12.958;2023-09-19T02:33:30;97154.94;;;19.20;88.94
9746;BME280;4912;50.836;12.958;2023-09-19T02:36:03;97155.03;;;19.14;89.00
9746;BME280;4912;50.836;12.958;2023-09-19T02:38:34;97164.94;;;19.15;89.22
9746;BME280;4912;50.836;12.958;2023-09-19T02:41:05;97167.00;;;19.15;89.08
9746;BME280;4912;50.836;12.958;2023-09-19T02:43:37;97166.06;;;19.12;89.23
9746;BME280;4912;50.836;12.958;2023-09-19T02:46:10;97173.41;;;19.02;89.52
9746;BME280;4912;50.836;12.958;2023-09-19T02:48:43;97177.06;;;18.97;90.40
9746;BME280;4912;50.836;12.958;2023-09-19T02:51:14;97180.06;;;18.99;89.81
9746;BME280;4912;50.836;12.958;2023-09-19T02:53:44;97189.13;;;19.05;89.44
9746;BME280;4912;50.836;12.958;2023-09-19T02:56:16;97186.66;;;19.02;89.92
9746;BME280;4912;50.836;12.958;2023-09-19T02:58:46;97190.94;;;19.03;90.05
9746;BME280;4912;50.836;12.958;2023-09-19T03:01:18;97191.72;;;19.03;89.69
9746;BME280;4912;50.836;12.958;2023-09-19T03:03:52;97198.84;;;19.04;89.99
9746;BME280;4912;50.836;12.958;2023-09-19T03:06:22;97212.53;;;18.95;90.33
9746;BME280;4912;50.836;12.958;2023-09-19T03:08:53;97200.16;;;18.90;90.88
9746;BME280;4912;50.836;12.958;2023-09-19T03:11:23;97204.78;;;18.88;90.90
9746;BME280;4912;50.836;12.958;2023-09-19T03:13:57;97203.16;;;18.92;90.73
9746;BME280;4912;50.836;12.958;2023-09-19T03:16:27;97205.75;;;18.90;90.78
9746;BME280;4912;50.836;12.958;2023-09-19T03:19:01;97215.97;;;18.88;91.07
9746;BME280;4912;50.836;12.958;2023-09-19T03:21:32;97204.66;;;18.80;91.70
9746;BME280;4912;50.836;12.958;2023-09-19T03:24:03;97209.41;;;18.72;92.10
9746;BME280;4912;50.836;12.958;2023-09-19T03:26:34;97217.59;;;18.70;92.59
9746;BME280;4912;50.836;12.958;2023-09-19T03:29:05;97209.94;;;18.70;92.34
9746;BME280;4912;50.836;12.958;2023-09-19T03:31:38;97212.63;;;18.76;92.22
9746;BME280;4912;50.836;12.958;2023-09-19T03:34:11;97208.78;;;18.79;91.81
9746;BME280;4912;50.836;12.958;2023-09-19T03:36:43;97215.00;;;18.85;91.55
9746;BME280;4912;50.836;12.958;2023-09-19T03:39:14;97217.81;;;18.85;91.12
9746;BME280;4912;50.836;12.958;2023-09-19T03:41:45;97219.13;;;18.84;91.40
9746;BME280;4912;50.836;12.958;2023-09-19T03:44:16;97219.22;;;18.92;90.91
9746;BME280;4912;50.836;12.958;2023-09-19T03:46:47;97212.66;;;18.89;90.68
9746;BME280;4912;50.836;12.958;2023-09-19T03:49:20;97212.66;;;18.89;90.77
9746;BME280;4912;50.836;12.958;2023-09-19T03:51:50;97219.75;;;18.77;90.97
9746;BME280;4912;50.836;12.958;2023-09-19T03:54:21;97213.06;;;18.67;91.45
9746;BME280;4912;50.836;12.958;2023-09-19T03:56:51;97214.88;;;18.64;91.52
9746;BME280;4912;50.836;12.958;2023-09-19T03:59:22;97214.66;;;18.62;91.96
9746;BME280;4912;50.836;12.958;2023-09-19T04:01:52;97212.97;;;18.72;91.53
9746;BME280;4912;50.836;12.958;2023-09-19T04:04:27;97214.56;;;18.68;91.34
9746;BME280;4912;50.836;12.958;2023-09-19T04:06:58;97217.81;;;18.72;91.21
9746;BME280;4912;50.836;12.958;2023-09-19T04:09:29;97221.56;;;18.74;90.91
9746;BME280;4912;50.836;12.958;2023-09-19T04:11:59;97219.97;;;18.79;90.27
9746;BME280;4912;50.836;12.958;2023-09-19T04:14:30;97228.41;;;18.79;90.38
9746;BME280;4912;50.836;12.958;2023-09-19T04:17:00;97227.50;;;18.71;90.61
9746;BME280;4912;50.836;12.958;2023-09-19T04:19:38;97240.00;;;18.70;90.84
9746;BME280;4912;50.836;12.958;2023-09-19T04:22:08;97236.56;;;18.64;91.04
9746;BME280;4912;50.836;12.958;2023-09-19T04:24:40;97231.16;;;18.66;90.95
9746;BME280;4912;50.836;12.958;2023-09-19T04:27:11;97236.03;;;18.65;90.94
9746;BME280;4912;50.836;12.958;2023-09-19T04:29:42;97239.78;;;18.68;90.95
9746;BME280;4912;50.836;12.958;2023-09-19T04:32:12;97242.06;;;18.69;90.52
9746;BME280;4912;50.836;12.958;2023-09-19T04:34:48;97248.09;;;18.73;89.91
9746;BME280;4912;50.836;12.958;2023-09-19T04:37:18;97246.50;;;18.78;90.02
9746;BME280;4912;50.836;12.958;2023-09-19T04:39:48;97251.00;;;18.81;89.69
9746;BME280;4912;50.836;12.958;2023-09-19T04:42:18;97258.91;;;18.83;89.17
9746;BME280;4912;50.836;12.958;2023-09-19T04:44:52;97259.66;;;18.83;88.56
9746;BME280;4912;50.836;12.958;2023-09-19T04:47:22;97257.25;;;18.74;89.05
9746;BME280;4912;50.836;12.958;2023-09-19T04:49:56;97268.06;;;18.83;88.78
9746;BME280;4912;50.836;12.958;2023-09-19T04:52:26;97279.16;;;18.89;88.52
9746;BME280;4912;50.836;12.958;2023-09-19T04:54:57;97275.84;;;18.90;88.43
9746;BME280;4912;50.836;12.958;2023-09-19T04:57:27;97268.09;;;18.96;88.06
9746;BME280;4912;50.836;12.958;2023-09-19T04:59:58;97271.94;;;18.93;87.55
9746;BME280;4912;50.836;12.958;2023-09-19T05:02:30;97275.84;;;18.90;88.07
9746;BME280;4912;50.836;12.958;2023-09-19T05:05:04;97278.66;;;18.90;87.91
9746;BME280;4912;50.836;12.958;2023-09-19T05:07:36;97276.50;;;18.96;87.42
9746;BME280;4912;50.836;12.958;2023-09-19T05:10:07;97277.56;;;18.93;87.59
9746;BME280;4912;50.836;12.958;2023-09-19T05:12:39;97281.34;;;18.96;87.29
9746;BME280;4912;50.836;12.958;2023-09-19T05:15:12;97281.44;;;19.03;87.23
9746;BME280;4912;50.836;12.958;2023-09-19T05:17:47;97284.47;;;19.05;86.61
9746;BME280;4912;50.836;12.958;2023-09-19T05:20:27;97285.34;;;19.00;87.29
9746;BME280;4912;50.836;12.958;2023-09-19T05:23:00;97296.66;;;19.08;86.95
9746;BME280;4912;50.836;12.958;2023-09-19T05:25:35;97289.09;;;19.03;86.58
9746;BME280;4912;50.836;12.958;2023-09-19T05:28:07;97293.75;;;19.00;86.89
9746;BME280;4912;50.836;12.958;2023-09-19T05:30:43;97291.25;;;18.97;87.09
9746;BME280;4912;50.836;12.958;2023-09-19T05:33:23;97294.28;;;18.99;87.02
9746;BME280;4912;50.836;12.958;2023-09-19T05:35:59;97297.72;;;19.05;86.66
9746;BME280;4912;50.836;12.958;2023-09-19T05:38:39;97306.47;;;19.01;86.64
9746;BME280;4912;50.836;12.958;2023-09-19T05:41:11;97302.38;;;19.02;86.25
9746;BME280;4912;50.836;12.958;2023-09-19T05:43:43;97304.09;;;19.05;85.82
9746;BME280;4912;50.836;12.958;2023-09-19T05:46:13;97308.84;;;19.10;85.46
9746;BME280;4912;50.836;12.958;2023-09-19T05:48:44;97308.72;;;19.03;85.93
9746;BME280;4912;50.836;12.958;2023-09-19T05:51:20;97308.94;;;19.05;86.18
9746;BME280;4912;50.836;12.958;2023-09-19T05:53:50;97314.66;;;18.99;86.24
9746;BME280;4912;50.836;12.958;2023-09-19T05:56:21;97322.22;;;19.04;85.96
9746;BME280;4912;50.836;12.958;2023-09-19T05:58:51;97326.44;;;19.11;85.79
9746;BME280;4912;50.836;12.958;2023-09-19T06:01:22;97321.81;;;19.13;85.38
9746;BME280;4912;50.836;12.958;2023-09-19T06:03:52;97328.91;;;19.14;85.40
9746;BME280;4912;50.836;12.958;2023-09-19T06:06:25;97332.47;;;19.15;85.52
9746;BME280;4912;50.836;12.958;2023-09-19T06:08:56;97328.69;;;19.12;85.27
9746;BME280;4912;50.836;12.958;2023-09-19T06:11:26;97329.47;;;19.13;85.22
9746;BME280;4912;50.836;12.958;2023-09-19T06:13:58;97330.53;;;19.10;85.43
9746;BME280;4912;50.836;12.958;2023-09-19T06:16:29;97338.72;;;19.21;84.91
9746;BME280;4912;50.836;12.958;2023-09-19T06:19:00;97340.59;;;19.32;84.69
9746;BME280;4912;50.836;12.958;2023-09-19T06:21:36;97348.56;;;19.41;83.81
9746;BME280;4912;50.836;12.958;2023-09-19T06:24:07;97335.66;;;19.51;83.21
9746;BME280;4912;50.836;12.958;2023-09-19T06:26:38;97342.19;;;19.40;83.54
9746;BME280;4912;50.836;12.958;2023-09-19T06:29:09;97339.72;;;19.37;83.24
9746;BME280;4912;50.836;12.958;2023-09-19T06:31:41;97338.44;;;19.38;83.86
9746;BME280;4912;50.836;12.958;2023-09-19T06:34:11;97349.00;;;19.32;83.91
9746;BME280;4912;50.836;12.958;2023-09-19T06:36:45;97346.63;;;19.36;84.24
9746;BME280;4912;50.836;12.958;2023-09-19T06:39:15;97343.38;;;19.45;84.03
9746;BME280;4912;50.836;12.958;2023-09-19T06:41:46;97347.91;;;19.35;84.28
9746;BME280;4912;50.836;12.958;2023-09-19T06:44:16;97350.31;;;19.44;84.73
9746;BME280;4912;50.836;12.958;2023-09-19T06:46:47;97351.25;;;19.33;84.69
9746;BME280;4912;50.836;12.958;2023-09-19T06:49:18;97350.59;;;19.27;84.77
9746;BME280;4912;50.836;12.958;2023-09-19T06:51:51;97353.88;;;19.31;85.16
9746;BME280;4912;50.836;12.958;2023-09-19T06:54:24;97355.91;;;19.31;84.77
9746;BME280;4912;50.836;12.958;2023-09-19T06:56:58;97369.06;;;19.36;84.66
9746;BME280;4912;50.836;12.958;2023-09-19T06:59:28;97373.81;;;19.28;84.55
9746;BME280;4912;50.836;12.958;2023-09-19T07:01:59;97374.34;;;19.39;84.42
9746;BME280;4912;50.836;12.958;2023-09-19T07:04:30;97370.50;;;19.69;83.56
9746;BME280;4912;50.836;12.958;2023-09-19T07:07:03;97379.34;;;19.86;82.20
9746;BME280;4912;50.836;12.958;2023-09-19T07:09:35;97381.72;;;19.82;82.01
9746;BME280;4912;50.836;12.958;2023-09-19T07:12:06;97382.09;;;20.25;80.18
9746;BME280;4912;50.836;12.958;2023-09-19T07:14:39;97382.53;;;20.42;78.32
9746;BME280;4912;50.836;12.958;2023-09-19T07:17:09;97378.34;;;20.10;79.45
9746;BME280;4912;50.836;12.958;2023-09-19T07:19:43;97378.97;;;20.29;79.46
9746;BME280;4912;50.836;12.958;2023-09-19T07:22:17;97381.97;;;20.31;78.37
9746;BME280;4912;50.836;12.958;2023-09-19T07:24:48;97392.38;;;20.91;76.31
9746;BME280;4912;50.836;12.958;2023-09-19T07:27:19;97384.84;;;21.27;74.91
9746;BME280;4912;50.836;12.958;2023-09-19T07:29:49;97386.34;;;21.56;72.69
9746;BME280;4912;50.836;12.958;2023-09-19T07:32:21;97403.84;;;21.34;72.29
9746;BME280;4912;50.836;12.958;2023-09-19T07:34:51;97394.31;;;20.96;73.75
9746;BME280;4912;50.836;12.958;2023-09-19T07:37:25;97399.63;;;21.20;73.30
9746;BME280;4912;50.836;12.958;2023-09-19T07:39:55;97402.22;;;21.95;69.79
9746;BME280;4912;50.836;12.958;2023-09-19T07:42:25;97403.50;;;22.81;66.95
9746;BME280;4912;50.836;12.958;2023-09-19T07:44:56;97403.72;;;23.06;64.56
9746;BME280;4912;50.836;12.958;2023-09-19T07:47:26;97409.25;;;22.68;65.82
9746;BME280;4912;50.836;12.958;2023-09-19T07:49:57;97395.47;;;23.08;64.23
9746;BME280;4912;50.836;12.958;2023-09-19T07:52:32;97405.19;;;24.86;58.35
9746;BME280;4912;50.836;12.958;2023-09-19T07:55:03;97402.16;;;26.25;53.44
9746;BME280;4912;50.836;12.958;2023-09-19T07:57:35;97403.47;;;27.22;49.89
9746;BME280;4912;50.836;12.958;2023-09-19T08:00:08;97406.94;;;26.94;50.07
9746;BME280;4912;50.836;12.958;2023-09-19T08:02:40;97408.81;;;26.20;51.85
9746;BME280;4912;50.836;12.958;2023-09-19T08:05:13;97414.03;;;26.06;52.65
9746;BME280;4912;50.836;12.958;2023-09-19T08:07:48;97406.78;;;25.79;52.40
9746;BME280;4912;50.836;12.958;2023-09-19T08:10:19;97409.06;;;25.31;54.52
9746;BME280;4912;50.836;12.958;2023-09-19T08:12:54;97400.09;;;27.89;47.20
9746;BME280;4912;50.836;12.958;2023-09-19T08:15:26;97411.44;;;28.95;43.67
9746;BME280;4912;50.836;12.958;2023-09-19T08:17:57;97416.94;;;29.52;40.44
9746;BME280;4912;50.836;12.958;2023-09-19T08:20:31;97421.19;;;27.86;43.49
9746;BME280;4912;50.836;12.958;2023-09-19T08:23:05;97416.47;;;27.15;45.18
9746;BME280;4912;50.836;12.958;2023-09-19T08:25:36;97426.66;;;26.13;46.63
9746;BME280;4912;50.836;12.958;2023-09-19T08:28:06;97430.69;;;25.68;48.13
9746;BME280;4912;50.836;12.958;2023-09-19T08:30:41;97432.56;;;25.16;49.74
9746;BME280;4912;50.836;12.958;2023-09-19T08:33:11;97431.09;;;24.35;48.23
9746;BME280;4912;50.836;12.958;2023-09-19T08:35:42;97433.44;;;23.98;47.98
9746;BME280;4912;50.836;12.958;2023-09-19T08:41:23;97429.44;;;27.91;40.79
9746;BME280;4912;50.836;12.958;2023-09-19T08:43:59;97434.84;;;29.43;38.06
9746;BME280;4912;50.836;12.958;2023-09-19T08:46:34;97434.53;;;30.43;35.86
9746;BME280;4912;50.836;12.958;2023-09-19T08:49:07;97433.28;;;31.12;34.75
9746;BME280;4912;50.836;12.958;2023-09-19T08:51:45;97433.91;;;29.50;36.66
9746;BME280;4912;50.836;12.958;2023-09-19T08:54:20;97433.06;;;28.78;37.90
9746;BME280;4912;50.836;12.958;2023-09-19T08:56:56;97442.38;;;26.75;42.42
9746;BME280;4912;50.836;12.958;2023-09-19T08:59:31;97445.94;;;25.48;44.71
9746;BME280;4912;50.836;12.958;2023-09-19T09:02:11;97444.94;;;24.63;47.21
9746;BME280;4912;50.836;12.958;2023-09-19T09:04:43;97453.06;;;24.99;45.89
9746;BME280;4912;50.836;12.958;2023-09-19T09:07:21;97448.28;;;24.77;45.58
9746;BME280;4912;50.836;12.958;2023-09-19T09:09:52;97446.66;;;23.96;46.87
9746;BME280;4912;50.836;12.958;2023-09-19T09:12:26;97459.31;;;23.49;47.75
9746;BME280;4912;50.836;12.958;2023-09-19T09:14:57;97463.63;;;23.58;48.57
9746;BME280;4912;50.836;12.958;2023-09-19T09:17:30;97463.97;;;23.92;47.61
9746;BME280;4912;50.836;12.958;2023-09-19T09:20:11;97458.97;;;24.86;45.40
9746;BME280;4912;50.836;12.958;2023-09-19T09:22:49;97470.44;;;24.56;45.71
9746;BME280;4912;50.836;12.958;2023-09-19T09:25:24;97475.66;;;23.81;48.41
9746;BME280;4912;50.836;12.958;2023-09-19T09:28:33;97469.66;;;23.62;47.98
9746;BME280;4912;50.836;12.958;2023-09-19T09:31:11;97474.88;;;23.27;48.84
9746;BME280;4912;50.836;12.958;2023-09-19T09:33:52;97477.44;;;22.88;50.47
9746;BME280;4912;50.836;12.958;2023-09-19T09:36:36;97493.00;;;22.73;50.78
9746;BME280;4912;50.836;12.958;2023-09-19T09:39:10;97492.59;;;22.33;52.35
9746;BME280;4912;50.836;12.958;2023-09-19T09:41:55;97477.56;;;22.38;52.45
9746;BME280;4912;50.836;12.958;2023-09-19T09:44:29;97484.66;;;23.19;51.32
9746;BME280;4912;50.836;12.958;2023-09-19T09:47:40;97482.09;;;23.59;50.47
9746;BME280;4912;50.836;12.958;2023-09-19T09:50:10;97487.63;;;25.30;44.69
9746;BME280;4912;50.836;12.958;2023-09-19T09:52:57;97482.84;;;26.07;41.79
9746;BME280;4912;50.836;12.958;2023-09-19T09:58:36;97468.16;;;27.67;36.69
9746;BME280;4912;50.836;12.958;2023-09-19T10:01:30;97465.88;;;27.03;36.04
9746;BME280;4912;50.836;12.958;2023-09-19T10:04:29;97476.50;;;26.16;39.17
9746;BME280;4912;50.836;12.958;2023-09-19T10:07:04;97469.81;;;27.44;36.57
9746;BME280;4912;50.836;12.958;2023-09-19T10:09:46;97473.53;;;27.37;35.30
9746;BME280;4912;50.836;12.958;2023-09-19T10:12:18;97476.09;;;26.88;37.00
9746;BME280;4912;50.836;12.958;2023-09-19T10:14:53;97487.88;;;27.65;34.90
9746;BME280;4912;50.836;12.958;2023-09-19T10:17:39;97478.19;;;27.42;35.33
9746;BME280;4912;50.836;12.958;2023-09-19T10:20:18;97483.19;;;26.11;37.03
9746;BME280;4912;50.836;12.958;2023-09-19T10:25:55;97480.03;;;26.59;36.34
9746;BME280;4912;50.836;12.958;2023-09-19T10:28:31;97467.47;;;27.50;35.01
9746;BME280;4912;50.836;12.958;2023-09-19T10:31:03;97473.38;;;27.61;34.17
9746;BME280;4912;50.836;12.958;2023-09-19T10:33:47;97474.78;;;27.89;32.90
9746;BME280;4912;50.836;12.958;2023-09-19T10:36:18;97480.88;;;27.76;33.53
9746;BME280;4912;50.836;12.958;2023-09-19T10:38:51;97483.22;;;27.60;33.51
9746;BME280;4912;50.836;12.958;2023-09-19T10:41:29;97486.06;;;27.60;33.91
9746;BME280;4912;50.836;12.958;2023-09-19T10:44:10;97481.41;;;27.28;33.63
9746;BME280;4912;50.836;12.958;2023-09-19T10:46:54;97481.69;;;26.79;34.30
9746;BME280;4912;50.836;12.958;2023-09-19T10:49:28;97482.19;;;26.85;34.53
9746;BME280;4912;50.836;12.958;2023-09-19T10:52:01;97486.03;;;26.11;36.32
9746;BME280;4912;50.836;12.958;2023-09-19T10:54:35;97484.44;;;25.51;37.69
9746;BME280;4912;50.836;12.958;2023-09-19T10:57:21;97484.84;;;25.47;38.68
9746;BME280;4912;50.836;12.958;2023-09-19T11:00:02;97471.63;;;25.75;38.22
9746;BME280;4912;50.836;12.958;2023-09-19T11:03:17;97485.81;;;26.51;36.57
9746;BME280;4912;50.836;12.958;2023-09-19T11:06:05;97485.66;;;26.32;36.66
9746;BME280;4912;50.836;12.958;2023-09-19T11:08:53;97468.00;;;26.16;36.48
9746;BME280;4912;50.836;12.958;2023-09-19T11:11:41;97470.13;;;26.50;36.18
9746;BME280;4912;50.836;12.958;2023-09-19T11:17:30;97469.25;;;26.74;35.43
9746;BME280;4912;50.836;12.958;2023-09-19T11:23:20;97473.25;;;27.42;34.57
9746;BME280;4912;50.836;12.958;2023-09-19T11:25:58;97480.53;;;28.08;32.65
9746;BME280;4912;50.836;12.958;2023-09-19T11:28:37;97472.78;;;28.38;32.80
9746;BME280;4912;50.836;12.958;2023-09-19T11:34:37;97484.25;;;28.01;32.61
9746;BME280;4912;50.836;12.958;2023-09-19T11:40:18;97474.25;;;26.83;34.60
9746;BME280;4912;50.836;12.958;2023-09-19T11:42:49;97468.53;;;27.54;33.60
9746;BME280;4912;50.836;12.958;2023-09-19T11:48:25;97470.53;;;28.56;31.67
9746;BME280;4912;50.836;12.958;2023-09-19T11:50:59;97475.53;;;27.99;32.55
9746;BME280;4912;50.836;12.958;2023-09-19T11:53:34;97470.06;;;27.02;34.30
9746;BME280;4912;50.836;12.958;2023-09-19T11:56:14;97468.53;;;28.10;35.68
9746;BME280;4912;50.836;12.958;2023-09-19T11:58:53;97469.78;;;28.55;35.85
9746;BME280;4912;50.836;12.958;2023-09-19T12:01:25;97471.28;;;28.56;34.75
9746;BME280;4912;50.836;12.958;2023-09-19T12:04:01;97473.97;;;28.83;32.89
9746;BME280;4912;50.836;12.958;2023-09-19T12:06:42;97474.47;;;27.85;32.42
9746;BME280;4912;50.836;12.958;2023-09-19T12:09:13;97472.06;;;27.09;34.11
9746;BME280;4912;50.836;12.958;2023-09-19T12:11:46;97469.63;;;28.34;33.13
9746;BME280;4912;50.836;12.958;2023-09-19T12:14:21;97457.41;;;29.20;31.39
9746;BME280;4912;50.836;12.958;2023-09-19T12:16:53;97464.03;;;29.63;30.96
9746;BME280;4912;50.836;12.958;2023-09-19T12:19:27;97454.25;;;30.61;29.78
9746;BME280;4912;50.836;12.958;2023-09-19T12:21:59;97465.94;;;30.22;28.92
9746;BME280;4912;50.836;12.958;2023-09-19T12:24:31;97463.06;;;30.43;28.08
9746;BME280;4912;50.836;12.958;2023-09-19T12:27:14;97460.97;;;30.23;27.57
9746;BME280;4912;50.836;12.958;2023-09-19T12:29:47;97457.03;;;30.28;26.53
9746;BME280;4912;50.836;12.958;2023-09-19T12:32:36;97449.66;;;31.68;25.73
9746;BME280;4912;50.836;12.958;2023-09-19T12:35:26;97456.56;;;32.00;24.79
9746;BME280;4912;50.836;12.958;2023-09-19T12:37:59;97458.34;;;31.58;24.84
9746;BME280;4912;50.836;12.958;2023-09-19T12:40:34;97467.16;;;30.62;26.12
9746;BME280;4912;50.836;12.958;2023-09-19T12:43:08;97472.47;;;28.72;29.38
9746;BME280;4912;50.836;12.958;2023-09-19T12:45:42;97459.91;;;28.37;29.93
9746;BME280;4912;50.836;12.958;2023-09-19T12:48:21;97468.66;;;29.68;28.35
9746;BME280;4912;50.836;12.958;2023-09-19T12:51:03;97452.75;;;30.38;27.86
9746;BME280;4912;50.836;12.958;2023-09-19T12:53:40;97465.78;;;29.37;29.19
9746;BME280;4912;50.836;12.958;2023-09-19T12:56:16;97460.59;;;28.08;31.36
9746;BME280;4912;50.836;12.958;2023-09-19T12:58:58;97465.03;;;27.73;32.20
9746;BME280;4912;50.836;12.958;2023-09-19T13:01:40;97456.59;;;27.56;32.87
9746;BME280;4912;50.836;12.958;2023-09-19T13:04:14;97457.97;;;28.49;31.68
9746;BME280;4912;50.836;12.958;2023-09-19T13:06:54;97454.47;;;28.02;32.16
9746;BME280;4912;50.836;12.958;2023-09-19T13:09:31;97460.50;;;27.70;32.48
9746;BME280;4912;50.836;12.958;2023-09-19T13:15:17;97436.00;;;29.09;30.75
9746;BME280;4912;50.836;12.958;2023-09-19T13:17:54;97438.97;;;29.83;29.37
9746;BME280;4912;50.836;12.958;2023-09-19T13:20:28;97439.97;;;30.39;28.21
9746;BME280;4912;50.836;12.958;2023-09-19T13:23:25;97437.28;;;31.30;27.09
9746;BME280;4912;50.836;12.958;2023-09-19T13:25:58;97430.50;;;32.31;26.36
9746;BME280;4912;50.836;12.958;2023-09-19T13:28:28;97440.50;;;32.18;25.72
9746;BME280;4912;50.836;12.958;2023-09-19T13:31:05;97439.66;;;32.04;25.99
9746;BME280;4912;50.836;12.958;2023-09-19T13:33:42;97441.06;;;31.00;26.85
9746;BME280;4912;50.836;12.958;2023-09-19T13:36:17;97438.94;;;30.35;27.06
9746;BME280;4912;50.836;12.958;2023-09-19T13:38:51;97439.22;;;28.46;29.31
9746;BME280;4912;50.836;12.958;2023-09-19T13:41:24;97447.03;;;27.61;30.41
9746;BME280;4912;50.836;12.958;2023-09-19T13:43:56;97447.00;;;27.24;31.86
9746;BME280;4912;50.836;12.958;2023-09-19T13:46:31;97442.28;;;26.83;32.25
9746;BME280;4912;50.836;12.958;2023-09-19T13:49:05;97446.47;;;27.82;30.84
9746;BME280;4912;50.836;12.958;2023-09-19T13:51:39;97433.53;;;29.25;28.86
9746;BME280;4912;50.836;12.958;2023-09-19T13:54:14;97437.94;;;30.30;27.45
9746;BME280;4912;50.836;12.958;2023-09-19T13:56:45;97446.25;;;29.74;27.47
9746;BME280;4912;50.836;12.958;2023-09-19T13:59:16;97444.84;;;29.85;28.20
9746;BME280;4912;50.836;12.958;2023-09-19T14:01:51;97454.50;;;30.01;27.69
9746;BME280;4912;50.836;12.958;2023-09-19T14:04:24;97453.06;;;29.19;28.47
9746;BME280;4912;50.836;12.958;2023-09-19T14:06:55;97443.63;;;27.82;30.30
9746;BME280;4912;50.836;12.958;2023-09-19T14:09:27;97454.50;;;26.59;31.87
9746;BME280;4912;50.836;12.958;2023-09-19T14:12:04;97452.94;;;25.72;33.66
9746;BME280;4912;50.836;12.958;2023-09-19T14:14:36;97444.44;;;25.47;35.02
9746;BME280;4912;50.836;12.958;2023-09-19T14:17:12;97440.34;;;26.85;33.37